sensor_id;sensor_type;location;lat;lon;timestamp;P1;durP1;ratioP1;P2;durP2;ratioP2
46457;SDS011;32155;54.076;12.092;2023-04-10T00:00:42;20.77;;;11.10;;
46457;SDS011;32155;54.076;12.092;2023-04-10T00:03:09;19.90;;;10.73;;
46457;SDS011;32155;54.076;12.092;2023-04-10T00:05:35;20.88;;;11.07;;
46457;SDS011;32155;54.076;12.092;2023-04-10T00:08:01;21.92;;;12.18;;
46457;SDS011;32155;54.076;12.092;2023-04-10T00:10:27;21.27;;;12.00;;
46457;SDS011;32155;54.076;12.092;2023-04-10T00:12:55;19.83;;;11.75;;
46457;SDS011;32155;54.076;12.092;2023-04-10T00:15:21;26.48;;;11.15;;
46457;SDS011;32155;54.076;12.092;2023-04-10T00:17:50;18.63;;;11.88;;
46457;SDS011;32155;54.076;12.092;2023-04-10T00:20:19;22.05;;;12.60;;
46457;SDS011;32155;54.076;12.092;2023-04-10T00:22:46;19.38;;;10.93;;
46457;SDS011;32155;54.076;12.092;2023-04-10T00:25:12;22.48;;;12.75;;
46457;SDS011;32155;54.076;12.092;2023-04-10T00:27:37;26.90;;;12.70;;
46457;SDS011;32155;54.076;12.092;2023-04-10T00:30:04;21.80;;;12.00;;
46457;SDS011;32155;54.076;12.092;2023-04-10T00:32:31;21.38;;;11.88;;
46457;SDS011;32155;54.076;12.092;2023-04-10T00:34:59;22.50;;;12.07;;
46457;SDS011;32155;54.076;12.092;2023-04-10T00:37:27;23.17;;;11.55;;
46457;SDS011;32155;54.076;12.092;2023-04-10T00:39:52;23.10;;;12.02;;
46457;SDS011;32155;54.076;12.092;2023-04-10T00:42:18;20.02;;;11.80;;
46457;SDS011;32155;54.076;12.092;2023-04-10T00:44:43;21.33;;;11.88;;
46457;SDS011;32155;54.076;12.092;2023-04-10T00:47:10;19.90;;;12.15;;
46457;SDS011;32155;54.076;12.092;2023-04-10T00:49:40;25.60;;;13.50;;
46457;SDS011;32155;54.076;12.092;2023-04-10T00:52:07;22.38;;;12.70;;
46457;SDS011;32155;54.076;12.092;2023-04-10T00:54:35;20.60;;;12.40;;
46457;SDS011;32155;54.076;12.092;2023-04-10T00:57:01;27.58;;;12.90;;
46457;SDS011;32155;54.076;12.092;2023-04-10T00:59:29;19.73;;;11.85;;
46457;SDS011;32155;54.076;12.092;2023-04-10T01:01:56;20.52;;;12.57;;
46457;SDS011;32155;54.076;12.092;2023-04-10T01:04:24;18.83;;;11.52;;
46457;SDS011;32155;54.076;12.092;2023-04-10T01:07:03;24.92;;;12.35;;
46457;SDS011;32155;54.076;12.092;2023-04-10T01:09:58;20.45;;;12.18;;
46457;SDS011;32155;54.076;12.092;2023-04-10T01:12:38;17.42;;;11.27;;
46457;SDS011;32155;54.076;12.092;2023-04-10T01:15:14;24.92;;;11.98;;
46457;SDS011;32155;54.076;12.092;2023-04-10T01:20:33;16.65;;;11.98;;
46457;SDS011;32155;54.076;12.092;2023-04-10T01:25:58;21.50;;;12.20;;
46457;SDS011;32155;54.076;12.092;2023-04-10T01:34:16;20.05;;;12.43;;
46457;SDS011;32155;54.076;12.092;2023-04-10T01:36:48;23.83;;;13.50;;
46457;SDS011;32155;54.076;12.092;2023-04-10T01:39:18;22.17;;;12.73;;
46457;SDS011;32155;54.076;12.092;2023-04-10T01:41:47;23.85;;;12.73;;
46457;SDS011;32155;54.076;12.092;2023-04-10T01:44:17;20.25;;;12.85;;
46457;SDS011;32155;54.076;12.092;2023-04-10T01:46:47;19.73;;;13.18;;
46457;SDS011;32155;54.076;12.092;2023-04-10T01:49:14;22.70;;;12.63;;
46457;SDS011;32155;54.076;12.092;2023-04-10T01:51:42;23.25;;;12.77;;
46457;SDS011;32155;54.076;12.092;2023-04-10T01:54:09;21.08;;;12.80;;
46457;SDS011;32155;54.076;12.092;2023-04-10T01:56:35;20.83;;;12.77;;
46457;SDS011;32155;54.076;12.092;2023-04-10T01:59:02;19.42;;;12.75;;
46457;SDS011;32155;54.076;12.092;2023-04-10T02:01:28;23.45;;;12.98;;
46457;SDS011;32155;54.076;12.092;2023-04-10T02:03:53;20.58;;;12.48;;
46457;SDS011;32155;54.076;12.092;2023-04-10T02:06:26;24.10;;;13.30;;
46457;SDS011;32155;54.076;12.092;2023-04-10T02:09:21;20.67;;;12.55;;
46457;SDS011;32155;54.076;12.092;2023-04-10T02:11:59;18.70;;;11.82;;
46457;SDS011;32155;54.076;12.092;2023-04-10T02:14:30;23.55;;;12.93;;
46457;SDS011;32155;54.076;12.092;2023-04-10T02:17:00;20.52;;;13.07;;
46457;SDS011;32155;54.076;12.092;2023-04-10T02:19:27;27.08;;;13.10;;
46457;SDS011;32155;54.076;12.092;2023-04-10T02:21:55;22.70;;;13.63;;
46457;SDS011;32155;54.076;12.092;2023-04-10T02:24:25;22.90;;;12.90;;
46457;SDS011;32155;54.076;12.092;2023-04-10T02:26:52;24.38;;;13.85;;
46457;SDS011;32155;54.076;12.092;2023-04-10T02:29:18;25.42;;;13.68;;
46457;SDS011;32155;54.076;12.092;2023-04-10T02:31:44;21.27;;;13.60;;
46457;SDS011;32155;54.076;12.092;2023-04-10T02:34:10;26.27;;;14.05;;
46457;SDS011;32155;54.076;12.092;2023-04-10T02:36:36;25.35;;;13.52;;
46457;SDS011;32155;54.076;12.092;2023-04-10T02:39:06;25.23;;;13.57;;
46457;SDS011;32155;54.076;12.092;2023-04-10T02:41:34;23.20;;;14.57;;
46457;SDS011;32155;54.076;12.092;2023-04-10T02:44:00;23.73;;;13.60;;
46457;SDS011;32155;54.076;12.092;2023-04-10T02:46:30;30.83;;;14.07;;
46457;SDS011;32155;54.076;12.092;2023-04-10T02:48:56;26.60;;;14.10;;
46457;SDS011;32155;54.076;12.092;2023-04-10T02:51:21;25.38;;;15.02;;
46457;SDS011;32155;54.076;12.092;2023-04-10T02:53:47;25.88;;;15.43;;
46457;SDS011;32155;54.076;12.092;2023-04-10T02:56:13;29.92;;;15.80;;
46457;SDS011;32155;54.076;12.092;2023-04-10T02:58:38;25.80;;;15.32;;
46457;SDS011;32155;54.076;12.092;2023-04-10T03:01:10;28.27;;;16.55;;
46457;SDS011;32155;54.076;12.092;2023-04-10T03:03:36;28.65;;;15.65;;
46457;SDS011;32155;54.076;12.092;2023-04-10T03:06:01;30.90;;;16.65;;
46457;SDS011;32155;54.076;12.092;2023-04-10T03:08:27;28.25;;;16.85;;
46457;SDS011;32155;54.076;12.092;2023-04-10T03:10:54;26.33;;;16.23;;
46457;SDS011;32155;54.076;12.092;2023-04-10T03:13:20;28.27;;;16.40;;
46457;SDS011;32155;54.076;12.092;2023-04-10T03:15:47;34.53;;;17.65;;
46457;SDS011;32155;54.076;12.092;2023-04-10T03:18:13;28.23;;;16.75;;
46457;SDS011;32155;54.076;12.092;2023-04-10T03:20:38;38.60;;;17.33;;
46457;SDS011;32155;54.076;12.092;2023-04-10T03:23:06;32.85;;;16.83;;
46457;SDS011;32155;54.076;12.092;2023-04-10T03:25:35;28.42;;;16.60;;
46457;SDS011;32155;54.076;12.092;2023-04-10T03:28:01;28.25;;;17.00;;
46457;SDS011;32155;54.076;12.092;2023-04-10T03:30:27;27.42;;;17.90;;
46457;SDS011;32155;54.076;12.092;2023-04-10T03:32:52;30.75;;;17.92;;
46457;SDS011;32155;54.076;12.092;2023-04-10T03:35:18;36.42;;;17.92;;
46457;SDS011;32155;54.076;12.092;2023-04-10T03:37:44;32.85;;;18.77;;
46457;SDS011;32155;54.076;12.092;2023-04-10T03:40:11;31.52;;;19.00;;
46457;SDS011;32155;54.076;12.092;2023-04-10T03:42:37;33.95;;;19.77;;
46457;SDS011;32155;54.076;12.092;2023-04-10T03:45:05;37.00;;;19.80;;
46457;SDS011;32155;54.076;12.092;2023-04-10T03:47:32;31.48;;;18.45;;
46457;SDS011;32155;54.076;12.092;2023-04-10T03:49:58;37.38;;;20.75;;
46457;SDS011;32155;54.076;12.092;2023-04-10T03:52:24;36.10;;;18.67;;
46457;SDS011;32155;54.076;12.092;2023-04-10T03:54:52;32.80;;;18.52;;
46457;SDS011;32155;54.076;12.092;2023-04-10T03:57:18;35.13;;;20.23;;
46457;SDS011;32155;54.076;12.092;2023-04-10T03:59:46;32.75;;;18.77;;
46457;SDS011;32155;54.076;12.092;2023-04-10T04:02:15;32.03;;;18.88;;
46457;SDS011;32155;54.076;12.092;2023-04-10T04:04:43;31.30;;;18.95;;
46457;SDS011;32155;54.076;12.092;2023-04-10T04:07:09;30.73;;;18.80;;
46457;SDS011;32155;54.076;12.092;2023-04-10T04:09:37;32.67;;;18.67;;
46457;SDS011;32155;54.076;12.092;2023-04-10T04:12:05;33.33;;;18.58;;
46457;SDS011;32155;54.076;12.092;2023-04-10T04:14:31;33.63;;;19.65;;
46457;SDS011;32155;54.076;12.092;2023-04-10T04:16:57;35.70;;;18.65;;
46457;SDS011;32155;54.076;12.092;2023-04-10T04:19:23;29.25;;;18.42;;
46457;SDS011;32155;54.076;12.092;2023-04-10T04:21:48;33.90;;;18.88;;
46457;SDS011;32155;54.076;12.092;2023-04-10T04:24:14;29.73;;;18.25;;
46457;SDS011;32155;54.076;12.092;2023-04-10T04:26:40;32.65;;;18.60;;
46457;SDS011;32155;54.076;12.092;2023-04-10T04:29:08;31.98;;;19.05;;
46457;SDS011;32155;54.076;12.092;2023-04-10T04:31:34;30.02;;;18.17;;
46457;SDS011;32155;54.076;12.092;2023-04-10T04:34:02;33.65;;;18.40;;
46457;SDS011;32155;54.076;12.092;2023-04-10T04:36:27;35.55;;;19.25;;
46457;SDS011;32155;54.076;12.092;2023-04-10T04:38:53;36.35;;;19.08;;
46457;SDS011;32155;54.076;12.092;2023-04-10T04:41:19;34.17;;;19.13;;
46457;SDS011;32155;54.076;12.092;2023-04-10T04:43:47;31.85;;;18.85;;
46457;SDS011;32155;54.076;12.092;2023-04-10T04:46:13;30.02;;;18.08;;
46457;SDS011;32155;54.076;12.092;2023-04-10T04:48:40;32.15;;;19.05;;
46457;SDS011;32155;54.076;12.092;2023-04-10T04:51:08;28.05;;;18.02;;
46457;SDS011;32155;54.076;12.092;2023-04-10T04:53:34;29.50;;;17.42;;
46457;SDS011;32155;54.076;12.092;2023-04-10T04:56:02;29.33;;;17.13;;
46457;SDS011;32155;54.076;12.092;2023-04-10T04:58:30;25.00;;;16.27;;
46457;SDS011;32155;54.076;12.092;2023-04-10T05:00:55;28.52;;;16.15;;
46457;SDS011;32155;54.076;12.092;2023-04-10T05:03:23;27.77;;;15.48;;
46457;SDS011;32155;54.076;12.092;2023-04-10T05:05:49;24.67;;;15.30;;
46457;SDS011;32155;54.076;12.092;2023-04-10T05:08:15;28.38;;;15.85;;
46457;SDS011;32155;54.076;12.092;2023-04-10T05:10:41;24.55;;;15.40;;
46457;SDS011;32155;54.076;12.092;2023-04-10T05:13:06;24.17;;;15.27;;
46457;SDS011;32155;54.076;12.092;2023-04-10T05:15:32;23.42;;;15.50;;
46457;SDS011;32155;54.076;12.092;2023-04-10T05:17:58;22.90;;;14.35;;
46457;SDS011;32155;54.076;12.092;2023-04-10T05:20:25;27.48;;;14.85;;
46457;SDS011;32155;54.076;12.092;2023-04-10T05:22:51;24.67;;;14.90;;
46457;SDS011;32155;54.076;12.092;2023-04-10T05:25:17;22.08;;;14.18;;
46457;SDS011;32155;54.076;12.092;2023-04-10T05:27:43;23.83;;;14.05;;
46457;SDS011;32155;54.076;12.092;2023-04-10T05:30:11;19.45;;;13.23;;
46457;SDS011;32155;54.076;12.092;2023-04-10T05:32:39;24.30;;;13.02;;
46457;SDS011;32155;54.076;12.092;2023-04-10T05:35:07;20.02;;;12.40;;
46457;SDS011;32155;54.076;12.092;2023-04-10T05:37:33;18.38;;;13.18;;
46457;SDS011;32155;54.076;12.092;2023-04-10T05:39:59;18.65;;;12.10;;
46457;SDS011;32155;54.076;12.092;2023-04-10T05:42:24;19.73;;;12.52;;
46457;SDS011;32155;54.076;12.092;2023-04-10T05:44:51;17.27;;;11.32;;
46457;SDS011;32155;54.076;12.092;2023-04-10T05:47:17;17.70;;;12.57;;
46457;SDS011;32155;54.076;12.092;2023-04-10T05:49:44;16.55;;;10.57;;
46457;SDS011;32155;54.076;12.092;2023-04-10T05:52:10;17.13;;;10.93;;
46457;SDS011;32155;54.076;12.092;2023-04-10T05:54:36;15.93;;;10.15;;
46457;SDS011;32155;54.076;12.092;2023-04-10T05:57:06;16.00;;;10.02;;
46457;SDS011;32155;54.076;12.092;2023-04-10T05:59:34;15.63;;;10.35;;
46457;SDS011;32155;54.076;12.092;2023-04-10T06:02:00;14.80;;;9.88;;
46457;SDS011;32155;54.076;12.092;2023-04-10T06:04:26;14.63;;;9.18;;
46457;SDS011;32155;54.076;12.092;2023-04-10T06:06:52;15.10;;;10.10;;
46457;SDS011;32155;54.076;12.092;2023-04-10T06:09:17;13.85;;;9.25;;
46457;SDS011;32155;54.076;12.092;2023-04-10T06:11:43;13.10;;;8.73;;
46457;SDS011;32155;54.076;12.092;2023-04-10T06:14:11;17.65;;;8.88;;
46457;SDS011;32155;54.076;12.092;2023-04-10T06:16:36;13.32;;;8.55;;
46457;SDS011;32155;54.076;12.092;2023-04-10T06:19:02;12.23;;;7.95;;
46457;SDS011;32155;54.076;12.092;2023-04-10T06:21:30;12.88;;;7.75;;
46457;SDS011;32155;54.076;12.092;2023-04-10T06:23:56;12.68;;;7.95;;
46457;SDS011;32155;54.076;12.092;2023-04-10T06:26:23;14.32;;;7.93;;
46457;SDS011;32155;54.076;12.092;2023-04-10T06:28:48;13.32;;;7.40;;
46457;SDS011;32155;54.076;12.092;2023-04-10T06:31:17;11.02;;;7.20;;
46457;SDS011;32155;54.076;12.092;2023-04-10T06:33:49;10.10;;;6.93;;
46457;SDS011;32155;54.076;12.092;2023-04-10T06:36:15;9.27;;;6.10;;
46457;SDS011;32155;54.076;12.092;2023-04-10T06:38:43;10.73;;;6.68;;
46457;SDS011;32155;54.076;12.092;2023-04-10T06:41:09;11.45;;;7.70;;
46457;SDS011;32155;54.076;12.092;2023-04-10T06:43:35;10.75;;;7.57;;
46457;SDS011;32155;54.076;12.092;2023-04-10T06:46:02;11.70;;;7.20;;
46457;SDS011;32155;54.076;12.092;2023-04-10T06:48:33;10.25;;;6.38;;
46457;SDS011;32155;54.076;12.092;2023-04-10T06:50:59;9.18;;;6.10;;
46457;SDS011;32155;54.076;12.092;2023-04-10T06:53:25;9.68;;;6.40;;
46457;SDS011;32155;54.076;12.092;2023-04-10T06:55:51;10.57;;;6.97;;
46457;SDS011;32155;54.076;12.092;2023-04-10T06:58:20;9.30;;;6.18;;
46457;SDS011;32155;54.076;12.092;2023-04-10T07:00:46;10.43;;;6.28;;
46457;SDS011;32155;54.076;12.092;2023-04-10T07:03:11;10.27;;;6.25;;
46457;SDS011;32155;54.076;12.092;2023-04-10T07:05:37;12.63;;;6.55;;
46457;SDS011;32155;54.076;12.092;2023-04-10T07:08:03;10.98;;;6.38;;
46457;SDS011;32155;54.076;12.092;2023-04-10T07:10:31;10.13;;;6.13;;
46457;SDS011;32155;54.076;12.092;2023-04-10T07:13:00;9.05;;;5.88;;
46457;SDS011;32155;54.076;12.092;2023-04-10T07:15:28;10.48;;;6.78;;
46457;SDS011;32155;54.076;12.092;2023-04-10T07:17:53;12.13;;;7.28;;
46457;SDS011;32155;54.076;12.092;2023-04-10T07:20:20;10.45;;;6.80;;
46457;SDS011;32155;54.076;12.092;2023-04-10T07:22:48;11.38;;;6.57;;
46457;SDS011;32155;54.076;12.092;2023-04-10T07:25:16;14.73;;;7.03;;
46457;SDS011;32155;54.076;12.092;2023-04-10T07:27:42;9.82;;;6.10;;
46457;SDS011;32155;54.076;12.092;2023-04-10T07:30:08;10.32;;;6.22;;
46457;SDS011;32155;54.076;12.092;2023-04-10T07:32:34;10.60;;;6.63;;
46457;SDS011;32155;54.076;12.092;2023-04-10T07:35:03;9.95;;;6.40;;
46457;SDS011;32155;54.076;12.092;2023-04-10T07:37:32;7.53;;;5.90;;
46457;SDS011;32155;54.076;12.092;2023-04-10T07:40:00;11.65;;;6.57;;
46457;SDS011;32155;54.076;12.092;2023-04-10T07:42:26;11.82;;;7.00;;
46457;SDS011;32155;54.076;12.092;2023-04-10T07:44:54;14.88;;;6.63;;
46457;SDS011;32155;54.076;12.092;2023-04-10T07:47:22;8.48;;;5.90;;
46457;SDS011;32155;54.076;12.092;2023-04-10T07:49:50;7.75;;;6.45;;
46457;SDS011;32155;54.076;12.092;2023-04-10T07:52:16;12.80;;;6.78;;
46457;SDS011;32155;54.076;12.092;2023-04-10T07:54:42;11.02;;;7.13;;
46457;SDS011;32155;54.076;12.092;2023-04-10T07:57:07;9.80;;;6.82;;
46457;SDS011;32155;54.076;12.092;2023-04-10T08:01:58;11.93;;;8.20;;
46457;SDS011;32155;54.076;12.092;2023-04-10T08:06:50;16.05;;;9.60;;
46457;SDS011;32155;54.076;12.092;2023-04-10T08:09:15;15.30;;;9.07;;
46457;SDS011;32155;54.076;12.092;2023-04-10T08:11:41;14.88;;;8.60;;
46457;SDS011;32155;54.076;12.092;2023-04-10T08:14:07;17.58;;;9.20;;
46457;SDS011;32155;54.076;12.092;2023-04-10T08:16:33;13.38;;;9.88;;
46457;SDS011;32155;54.076;12.092;2023-04-10T08:18:59;17.75;;;9.95;;
46457;SDS011;32155;54.076;12.092;2023-04-10T08:21:26;15.98;;;10.40;;
46457;SDS011;32155;54.076;12.092;2023-04-10T08:23:56;16.13;;;10.82;;
46457;SDS011;32155;54.076;12.092;2023-04-10T08:26:23;20.35;;;11.73;;
46457;SDS011;32155;54.076;12.092;2023-04-10T08:28:53;19.08;;;11.18;;
46457;SDS011;32155;54.076;12.092;2023-04-10T08:31:21;15.82;;;10.88;;
46457;SDS011;32155;54.076;12.092;2023-04-10T08:33:47;18.77;;;12.20;;
46457;SDS011;32155;54.076;12.092;2023-04-10T08:36:14;20.40;;;11.82;;
46457;SDS011;32155;54.076;12.092;2023-04-10T08:38:43;19.35;;;12.73;;
46457;SDS011;32155;54.076;12.092;2023-04-10T08:41:10;18.35;;;12.05;;
46457;SDS011;32155;54.076;12.092;2023-04-10T08:43:45;24.03;;;13.10;;
46457;SDS011;32155;54.076;12.092;2023-04-10T08:46:11;18.92;;;12.35;;
46457;SDS011;32155;54.076;12.092;2023-04-10T08:51:13;17.98;;;12.13;;
46457;SDS011;32155;54.076;12.092;2023-04-10T08:53:42;20.20;;;13.48;;
46457;SDS011;32155;54.076;12.092;2023-04-10T08:56:12;21.55;;;13.48;;
46457;SDS011;32155;54.076;12.092;2023-04-10T08:58:40;17.25;;;11.90;;
46457;SDS011;32155;54.076;12.092;2023-04-10T09:01:07;16.98;;;11.93;;
46457;SDS011;32155;54.076;12.092;2023-04-10T09:03:36;21.00;;;12.73;;
46457;SDS011;32155;54.076;12.092;2023-04-10T09:06:02;17.73;;;12.63;;
46457;SDS011;32155;54.076;12.092;2023-04-10T09:08:29;16.88;;;12.50;;
46457;SDS011;32155;54.076;12.092;2023-04-10T09:10:55;20.17;;;12.82;;
46457;SDS011;32155;54.076;12.092;2023-04-10T09:13:40;18.20;;;12.75;;
46457;SDS011;32155;54.076;12.092;2023-04-10T09:16:07;17.63;;;13.10;;
46457;SDS011;32155;54.076;12.092;2023-04-10T09:21:08;16.15;;;12.10;;
46457;SDS011;32155;54.076;12.092;2023-04-10T09:23:35;16.15;;;12.43;;
46457;SDS011;32155;54.076;12.092;2023-04-10T09:26:01;18.23;;;13.15;;
46457;SDS011;32155;54.076;12.092;2023-04-10T09:31:46;18.70;;;13.48;;
46457;SDS011;32155;54.076;12.092;2023-04-10T09:34:12;16.20;;;12.63;;
46457;SDS011;32155;54.076;12.092;2023-04-10T09:36:42;17.52;;;13.63;;
46457;SDS011;32155;54.076;12.092;2023-04-10T09:39:10;16.38;;;12.57;;
46457;SDS011;32155;54.076;12.092;2023-04-10T09:41:52;17.98;;;12.43;;
46457;SDS011;32155;54.076;12.092;2023-04-10T09:44:33;15.77;;;11.95;;
46457;SDS011;32155;54.076;12.092;2023-04-10T09:49:48;15.35;;;12.10;;
46457;SDS011;32155;54.076;12.092;2023-04-10T09:52:26;16.38;;;12.68;;
46457;SDS011;32155;54.076;12.092;2023-04-10T09:57:29;14.25;;;12.45;;
46457;SDS011;32155;54.076;12.092;2023-04-10T09:59:56;13.10;;;11.50;;
46457;SDS011;32155;54.076;12.092;2023-04-10T10:02:28;14.18;;;10.77;;
46457;SDS011;32155;54.076;12.092;2023-04-10T10:04:55;13.52;;;11.60;;
46457;SDS011;32155;54.076;12.092;2023-04-10T10:07:24;15.73;;;11.18;;
46457;SDS011;32155;54.076;12.092;2023-04-10T10:09:51;13.93;;;10.75;;
46457;SDS011;32155;54.076;12.092;2023-04-10T10:12:28;14.27;;;11.15;;
46457;SDS011;32155;54.076;12.092;2023-04-10T10:17:40;14.85;;;10.98;;
46457;SDS011;32155;54.076;12.092;2023-04-10T10:20:10;14.35;;;11.18;;
46457;SDS011;32155;54.076;12.092;2023-04-10T10:22:41;13.95;;;11.38;;
46457;SDS011;32155;54.076;12.092;2023-04-10T10:25:08;13.77;;;11.05;;
46457;SDS011;32155;54.076;12.092;2023-04-10T10:27:35;12.88;;;10.18;;
46457;SDS011;32155;54.076;12.092;2023-04-10T10:30:21;13.20;;;10.75;;
46457;SDS011;32155;54.076;12.092;2023-04-10T10:32:47;14.50;;;11.07;;
46457;SDS011;32155;54.076;12.092;2023-04-10T10:35:14;14.07;;;11.45;;
46457;SDS011;32155;54.076;12.092;2023-04-10T10:37:41;14.93;;;10.82;;
46457;SDS011;32155;54.076;12.092;2023-04-10T10:40:16;12.43;;;10.25;;
46457;SDS011;32155;54.076;12.092;2023-04-10T10:42:45;13.20;;;11.05;;
46457;SDS011;32155;54.076;12.092;2023-04-10T10:45:29;13.65;;;11.50;;
46457;SDS011;32155;54.076;12.092;2023-04-10T10:47:58;15.00;;;11.40;;
46457;SDS011;32155;54.076;12.092;2023-04-10T10:50:24;16.23;;;11.15;;
46457;SDS011;32155;54.076;12.092;2023-04-10T10:54:03;14.65;;;10.85;;
46457;SDS011;32155;54.076;12.092;2023-04-10T11:01:17;12.57;;;10.00;;
46457;SDS011;32155;54.076;12.092;2023-04-10T11:03:44;11.18;;;9.88;;
46457;SDS011;32155;54.076;12.092;2023-04-10T11:06:14;13.00;;;10.93;;
46457;SDS011;32155;54.076;12.092;2023-04-10T11:08:51;15.00;;;11.68;;
46457;SDS011;32155;54.076;12.092;2023-04-10T11:11:18;13.57;;;10.70;;
46457;SDS011;32155;54.076;12.092;2023-04-10T11:16:22;13.65;;;10.90;;
46457;SDS011;32155;54.076;12.092;2023-04-10T11:19:06;12.93;;;10.75;;
46457;SDS011;32155;54.076;12.092;2023-04-10T11:21:37;12.60;;;9.98;;
46457;SDS011;32155;54.076;12.092;2023-04-10T11:27:40;13.18;;;11.75;;
46457;SDS011;32155;54.076;12.092;2023-04-10T11:30:26;14.48;;;11.55;;
46457;SDS011;32155;54.076;12.092;2023-04-10T11:32:59;14.90;;;11.23;;
46457;SDS011;32155;54.076;12.092;2023-04-10T11:35:26;13.40;;;11.02;;
46457;SDS011;32155;54.076;12.092;2023-04-10T11:38:08;13.80;;;10.88;;
46457;SDS011;32155;54.076;12.092;2023-04-10T11:43:31;13.43;;;10.75;;
46457;SDS011;32155;54.076;12.092;2023-04-10T11:45:58;11.57;;;10.13;;
46457;SDS011;32155;54.076;12.092;2023-04-10T11:48:28;13.65;;;11.20;;
46457;SDS011;32155;54.076;12.092;2023-04-10T11:50:54;12.68;;;10.40;;
46457;SDS011;32155;54.076;12.092;2023-04-10T11:53:20;11.70;;;10.15;;
46457;SDS011;32155;54.076;12.092;2023-04-10T11:55:46;12.43;;;10.35;;
46457;SDS011;32155;54.076;12.092;2023-04-10T11:58:28;14.77;;;10.73;;
46457;SDS011;32155;54.076;12.092;2023-04-10T12:00:55;11.60;;;9.18;;
46457;SDS011;32155;54.076;12.092;2023-04-10T12:03:30;12.55;;;10.50;;
46457;SDS011;32155;54.076;12.092;2023-04-10T12:06:04;12.25;;;9.50;;
46457;SDS011;32155;54.076;12.092;2023-04-10T12:08:35;12.73;;;10.00;;
46457;SDS011;32155;54.076;12.092;2023-04-10T12:11:03;12.02;;;9.13;;
46457;SDS011;32155;54.076;12.092;2023-04-10T12:13:34;11.07;;;8.88;;
46457;SDS011;32155;54.076;12.092;2023-04-10T12:16:01;9.45;;;8.38;;
46457;SDS011;32155;54.076;12.092;2023-04-10T12:18:31;9.32;;;8.32;;
46457;SDS011;32155;54.076;12.092;2023-04-10T12:20:57;10.00;;;7.70;;
46457;SDS011;32155;54.076;12.092;2023-04-10T12:23:24;9.85;;;7.72;;
46457;SDS011;32155;54.076;12.092;2023-04-10T12:25:55;8.57;;;6.88;;
46457;SDS011;32155;54.076;12.092;2023-04-10T12:28:34;8.25;;;5.53;;
46457;SDS011;32155;54.076;12.092;2023-04-10T12:31:01;8.70;;;6.30;;
46457;SDS011;32155;54.076;12.092;2023-04-10T12:33:30;7.50;;;5.50;;
46457;SDS011;32155;54.076;12.092;2023-04-10T12:35:56;6.40;;;5.00;;
46457;SDS011;32155;54.076;12.092;2023-04-10T12:38:39;6.22;;;5.38;;
46457;SDS011;32155;54.076;12.092;2023-04-10T12:41:07;4.95;;;4.40;;
46457;SDS011;32155;54.076;12.092;2023-04-10T12:43:37;8.18;;;4.80;;
46457;SDS011;32155;54.076;12.092;2023-04-10T12:46:04;6.22;;;5.40;;
46457;SDS011;32155;54.076;12.092;2023-04-10T12:48:34;6.72;;;4.72;;
46457;SDS011;32155;54.076;12.092;2023-04-10T12:51:04;6.68;;;5.10;;
46457;SDS011;32155;54.076;12.092;2023-04-10T12:53:41;7.60;;;4.97;;
46457;SDS011;32155;54.076;12.092;2023-04-10T12:56:08;6.05;;;4.65;;
46457;SDS011;32155;54.076;12.092;2023-04-10T12:58:34;5.47;;;4.47;;
46457;SDS011;32155;54.076;12.092;2023-04-10T13:01:06;5.93;;;5.03;;
46457;SDS011;32155;54.076;12.092;2023-04-10T13:03:33;5.70;;;5.10;;
46457;SDS011;32155;54.076;12.092;2023-04-10T13:06:00;9.25;;;6.05;;
46457;SDS011;32155;54.076;12.092;2023-04-10T13:08:29;9.25;;;5.63;;
46457;SDS011;32155;54.076;12.092;2023-04-10T13:10:56;6.25;;;4.55;;
46457;SDS011;32155;54.076;12.092;2023-04-10T13:13:27;6.10;;;4.25;;
46457;SDS011;32155;54.076;12.092;2023-04-10T13:15:55;6.75;;;4.68;;
46457;SDS011;32155;54.076;12.092;2023-04-10T13:18:20;7.82;;;4.95;;
46457;SDS011;32155;54.076;12.092;2023-04-10T13:20:46;6.80;;;4.57;;
46457;SDS011;32155;54.076;12.092;2023-04-10T13:23:11;6.13;;;5.00;;
46457;SDS011;32155;54.076;12.092;2023-04-10T13:25:37;5.50;;;4.28;;
46457;SDS011;32155;54.076;12.092;2023-04-10T13:28:04;5.13;;;4.50;;
46457;SDS011;32155;54.076;12.092;2023-04-10T13:30:37;13.32;;;5.80;;
46457;SDS011;32155;54.076;12.092;2023-04-10T13:33:04;8.05;;;5.50;;
46457;SDS011;32155;54.076;12.092;2023-04-10T13:35:30;6.20;;;4.95;;
46457;SDS011;32155;54.076;12.092;2023-04-10T13:37:56;6.00;;;5.28;;
46457;SDS011;32155;54.076;12.092;2023-04-10T13:40:25;8.02;;;6.47;;
46457;SDS011;32155;54.076;12.092;2023-04-10T13:42:51;7.38;;;6.07;;
46457;SDS011;32155;54.076;12.092;2023-04-10T13:45:22;8.88;;;6.68;;
46457;SDS011;32155;54.076;12.092;2023-04-10T13:47:47;7.63;;;6.38;;
46457;SDS011;32155;54.076;12.092;2023-04-10T13:50:18;9.27;;;6.20;;
46457;SDS011;32155;54.076;12.092;2023-04-10T13:52:43;7.07;;;5.95;;
46457;SDS011;32155;54.076;12.092;2023-04-10T13:55:09;6.75;;;5.30;;
46457;SDS011;32155;54.076;12.092;2023-04-10T13:57:35;8.57;;;5.60;;
46457;SDS011;32155;54.076;12.092;2023-04-10T14:00:05;7.63;;;6.07;;
46457;SDS011;32155;54.076;12.092;2023-04-10T14:02:34;12.63;;;7.03;;
46457;SDS011;32155;54.076;12.092;2023-04-10T14:05:00;9.77;;;6.78;;
46457;SDS011;32155;54.076;12.092;2023-04-10T14:07:33;12.00;;;6.40;;
46457;SDS011;32155;54.076;12.092;2023-04-10T14:10:01;9.38;;;6.50;;
46457;SDS011;32155;54.076;12.092;2023-04-10T14:12:27;8.98;;;6.15;;
46457;SDS011;32155;54.076;12.092;2023-04-10T14:14:53;7.43;;;6.47;;
46457;SDS011;32155;54.076;12.092;2023-04-10T14:17:20;8.43;;;6.30;;
46457;SDS011;32155;54.076;12.092;2023-04-10T14:19:46;7.05;;;6.35;;
46457;SDS011;32155;54.076;12.092;2023-04-10T14:22:15;7.93;;;6.47;;
46457;SDS011;32155;54.076;12.092;2023-04-10T14:24:41;14.82;;;6.70;;
46457;SDS011;32155;54.076;12.092;2023-04-10T14:27:07;8.88;;;6.40;;
46457;SDS011;32155;54.076;12.092;2023-04-10T14:29:32;9.40;;;6.30;;
46457;SDS011;32155;54.076;12.092;2023-04-10T14:31:58;7.60;;;6.70;;
46457;SDS011;32155;54.076;12.092;2023-04-10T14:34:26;10.70;;;6.75;;
46457;SDS011;32155;54.076;12.092;2023-04-10T14:36:54;8.50;;;6.60;;
46457;SDS011;32155;54.076;12.092;2023-04-10T14:39:23;7.30;;;5.95;;
46457;SDS011;32155;54.076;12.092;2023-04-10T14:41:49;8.18;;;6.53;;
46457;SDS011;32155;54.076;12.092;2023-04-10T14:44:16;9.10;;;6.93;;
46457;SDS011;32155;54.076;12.092;2023-04-10T14:46:42;8.15;;;6.05;;
46457;SDS011;32155;54.076;12.092;2023-04-10T14:49:11;10.38;;;6.32;;
46457;SDS011;32155;54.076;12.092;2023-04-10T14:51:37;10.80;;;6.25;;
46457;SDS011;32155;54.076;12.092;2023-04-10T14:54:06;9.35;;;6.90;;
46457;SDS011;32155;54.076;12.092;2023-04-10T14:56:35;9.90;;;6.25;;
46457;SDS011;32155;54.076;12.092;2023-04-10T14:59:04;10.75;;;7.05;;
46457;SDS011;32155;54.076;12.092;2023-04-10T15:01:31;7.03;;;6.28;;
46457;SDS011;32155;54.076;12.092;2023-04-10T15:03:56;9.25;;;7.15;;
46457;SDS011;32155;54.076;12.092;2023-04-10T15:06:22;10.00;;;6.95;;
46457;SDS011;32155;54.076;12.092;2023-04-10T15:08:49;8.52;;;6.47;;